King Salmon, AK

8:05 PM AKDT on August 27, 2014 (GMT -0800)
Chignik | Change Station
CLOSE
Current Station
Airport
Location: Chignik,
Elevation: 16 ft
Nearby Weather Stations

Elev 16 ft 56.31 °N, 158.37 °W | Updated 9 minutes ago

Overcast
Overcast
55 °F
Feels Like 55 °F
N
12
Wind Variable Wind from NW

Today
High -- | Low -- °F
--% Chance of Precip.
Yesterday
High -- | Low -- °F
Precip. -- in
7:27 AM 9:43 PM
Waxing Crescent, 6% visible
Pressure 29.57 in
Visibility 9.0 miles
Clouds Mostly Cloudy 2300 ft
Overcast 3000 ft
Dew Point 48 °F
Humidity 77%
Rainfall 0.16 in
Snow Depth Not available.
UV 0 out of 12
Pollen Not available.
Air Quality Not available.
Flu Activity Not available.
METAR PAJC 280356Z AUTO 31010KT 220V030 9SM BKN023 OVC030 13/09 A2957 RMK AO1 P0001

More Conditions Fewer Conditions

Pressure 29.57 in
Visibility 9.0 miles
Clouds Mostly Cloudy 2300 ft
Overcast 3000 ft
Dew Point 48 °F
Humidity 77%
Rainfall 0.16 in
Snow Depth Not available.
UV 0 out of 12
Pollen Not available.
Air Quality Not available.
Flu Activity Not available.
METAR PAJC 280356Z AUTO 31010KT 220V030 9SM BKN023 OVC030 13/09 A2957 RMK AO1 P0001

More Conditions Fewer Conditions

10-Day Weather Forecast

Almanac

Astronomy

Aug. 27, 2014 Rise Set
Actual Time 7:27 AM AKDT 9:43 PM AKDT
Civil Twilight 6:45 AM AKDT 10:24 PM AKDT
Nautical Twilight 5:51 AM AKDT 11:18 PM AKDT
Astronomical Twilight 4:44 AM AKDT 12:23 AM AKDT
Moon 10:07 AM AKDT (8/27) 10:03 PM AKDT (8/27)
Length of Visible Light 15h 39m
Length of Day
14h 16m
Tomorrow will be 4m 41s shorter.
Waxing Crescent, 6% of the Moon is Illuminated
Aug 28
Waxing Crescent
Sep 2
First Quarter
Sep 8
Full
Sep 15
Last Quarter
Sep 24
New

Today's Extremes

State Highs State Lows

Community

WunderPhotos

Upload Photos

1,747,900 photos uploaded!

Nearby

Snow Depth

Station Depth Elevation
Port Graham 0 in 300 ft
Mcneil Canyon 1 in 1320 ft
MF Bradley River 3 in 2300 ft
Nuka Glacier 109 in 1250 ft
Cooper Lake 13 in 1200 ft

Earthquake Activity

City Distance Mag. Time & Date
No recent earthquake activity has been reported nearby.
Minimum magnitude displayed is 2.5.

Coastal Water Temperatures

Place Temperature
No Stations Reporting

Nearby Weather Stations